createdAt,value
2019-01-21T00:00:12.171Z,66.17
2019-01-21T00:02:40.518Z,65.97
2019-01-21T00:05:08.914Z,66.36
2019-01-21T00:07:37.301Z,66.03
2019-01-21T00:10:07.092Z,66.07
2019-01-21T00:12:35.448Z,65.89
2019-01-21T00:15:06.455Z,65.17
2019-01-21T00:17:34.824Z,65.58
2019-01-21T00:20:04.674Z,66.28
2019-01-21T00:22:33.042Z,65.85
2019-01-21T00:25:01.364Z,65.79
2019-01-21T00:27:29.781Z,65.44
2019-01-21T00:29:58.123Z,65.01
2019-01-21T00:32:26.481Z,65.14
2019-01-21T00:34:54.875Z,64.97
2019-01-21T00:37:23.297Z,65.67
2019-01-21T00:39:51.655Z,65.06
2019-01-21T00:42:20.014Z,65.03
2019-01-21T00:44:48.365Z,65.58
2019-01-21T00:47:16.871Z,66.20
2019-01-21T00:49:45.218Z,66.27
2019-01-21T00:52:13.665Z,66.59
2019-01-21T00:54:42.044Z,66.15
2019-01-21T00:57:10.924Z,65.92
2019-01-21T00:59:39.305Z,65.99
2019-01-21T01:02:07.655Z,66.25
2019-01-21T01:04:35.993Z,66.48
2019-01-21T01:07:04.453Z,66.48
2019-01-21T01:09:32.822Z,66.29
2019-01-21T01:12:01.204Z,66.37
2019-01-21T01:14:29.565Z,66.03
2019-01-21T01:16:57.959Z,65.85
2019-01-21T01:19:26.335Z,65.90
2019-01-21T01:21:54.768Z,66.05
2019-01-21T01:24:23.210Z,66.21
2019-01-21T01:26:51.557Z,66.61
2019-01-21T01:29:19.977Z,67.47
2019-01-21T01:31:48.394Z,67.24
2019-01-21T01:34:16.752Z,67.68
2019-01-21T01:36:45.125Z,66.52
2019-01-21T01:39:13.493Z,66.56
2019-01-21T01:41:41.910Z,66.56
2019-01-21T01:44:10.888Z,67.38
2019-01-21T01:46:39.280Z,66.51
2019-01-21T01:49:07.627Z,66.76
2019-01-21T01:51:36.082Z,67.37
2019-01-21T01:54:04.655Z,67.28
2019-01-21T01:56:33.050Z,66.56
2019-01-21T01:59:01.562Z,67.18
2019-01-21T02:01:29.909Z,67.68
2019-01-21T02:03:58.275Z,68.46
2019-01-21T02:06:26.653Z,68.33
2019-01-21T02:08:54.986Z,68.77
2019-01-21T02:11:23.475Z,68.95
2019-01-21T02:13:52.182Z,68.73
2019-01-21T02:16:20.673Z,67.61
2019-01-21T02:18:48.981Z,67.54
2019-01-21T02:21:18.904Z,67.39
2019-01-21T02:23:51.196Z,68.18
2019-01-21T02:26:19.912Z,67.61
2019-01-21T02:28:54.573Z,68.04
2019-01-21T02:31:28.352Z,67.33
2019-01-21T02:34:01.974Z,68.20
2019-01-21T02:36:36.239Z,68.03
2019-01-21T02:39:06.330Z,68.45
2019-01-21T02:41:36.213Z,68.47
2019-01-21T02:44:10.178Z,68.35
2019-01-21T02:46:44.999Z,68.99
2019-01-21T02:49:18.754Z,69.56
2019-01-21T02:51:52.457Z,69.57
2019-01-21T02:54:28.268Z,68.61
2019-01-21T02:57:01.665Z,68.44
2019-01-21T02:59:35.578Z,67.79
2019-01-21T03:02:08.397Z,68.33
2019-01-21T03:04:45.219Z,68.09
2019-01-21T03:07:16.580Z,67.86
2019-01-21T03:09:49.274Z,68.17
2019-01-21T03:12:19.255Z,68.35
2019-01-21T03:14:52.105Z,68.58
2019-01-21T03:17:29.147Z,68.00
2019-01-21T03:20:03.820Z,67.23
2019-01-21T03:22:38.683Z,67.45
2019-01-21T03:25:11.867Z,68.00
2019-01-21T03:27:46.027Z,68.50
2019-01-21T03:30:17.871Z,68.47
2019-01-21T03:32:51.586Z,68.75
2019-01-21T03:35:25.193Z,68.28
2019-01-21T03:37:58.224Z,68.80
2019-01-21T03:40:32.882Z,68.70
2019-01-21T03:43:05.992Z,68.71
2019-01-21T03:45:38.805Z,67.48
2019-01-21T03:48:16.647Z,67.53
2019-01-21T03:50:49.743Z,67.92
2019-01-21T03:53:21.248Z,67.72
2019-01-21T03:55:53.321Z,67.38
2019-01-21T03:58:25.050Z,67.15
2019-01-21T04:00:57.855Z,67.93
2019-01-21T04:03:33.591Z,68.01
2019-01-21T04:06:06.251Z,67.62
2019-01-21T04:08:39.320Z,67.92
2019-01-21T04:11:12.967Z,67.75
2019-01-21T04:13:48.886Z,67.69
2019-01-21T04:16:19.560Z,67.95
2019-01-21T04:18:55.238Z,67.95
2019-01-21T04:21:28.996Z,68.55
2019-01-21T04:24:00.926Z,67.66
2019-01-21T04:26:33.884Z,68.03
2019-01-21T04:29:07.690Z,68.65
2019-01-21T04:31:40.598Z,68.31
2019-01-21T04:34:14.490Z,68.35
2019-01-21T04:36:47.661Z,68.72
2019-01-21T04:39:21.472Z,68.98
2019-01-21T04:41:54.649Z,67.96
2019-01-21T04:44:27.555Z,69.22
2019-01-21T04:47:01.424Z,69.37
2019-01-21T04:49:34.171Z,69.68
2019-01-21T04:52:06.997Z,69.07
2019-01-21T04:54:39.697Z,68.89
2019-01-21T04:57:16.582Z,68.67
2019-01-21T04:59:50.477Z,68.87
2019-01-21T05:02:25.143Z,69.28
2019-01-21T05:04:58.996Z,69.46
2019-01-21T05:07:33.809Z,69.27
2019-01-21T05:10:08.710Z,69.12
2019-01-21T05:12:39.750Z,69.43
2019-01-21T05:15:14.557Z,69.86
2019-01-21T05:17:47.426Z,69.72
2019-01-21T05:20:19.278Z,70.18
2019-01-21T05:22:52.938Z,69.41
2019-01-21T05:25:26.679Z,68.91
2019-01-21T05:27:58.606Z,69.00
2019-01-21T05:30:31.516Z,68.90
2019-01-21T05:33:07.288Z,68.93
2019-01-21T05:35:40.265Z,69.77
2019-01-21T05:38:12.201Z,69.13
2019-01-21T05:40:45.978Z,68.80
2019-01-21T05:43:20.711Z,67.61
2019-01-21T05:45:53.561Z,68.18
2019-01-21T05:48:27.410Z,68.44
2019-01-21T05:51:03.433Z,68.29
2019-01-21T05:53:40.018Z,69.13
2019-01-21T05:56:15.679Z,69.19
2019-01-21T05:58:48.879Z,69.08
2019-01-21T06:01:22.138Z,68.58
2019-01-21T06:03:54.919Z,68.88
2019-01-21T06:06:30.580Z,69.16
2019-01-21T06:09:07.581Z,68.95
2019-01-21T06:11:53.584Z,69.00
2019-01-21T06:14:38.541Z,68.85
2019-01-21T06:17:11.674Z,69.75
2019-01-21T06:19:45.012Z,69.88
2019-01-21T06:25:33.721Z,70.00
2019-01-21T06:28:06.135Z,70.55
2019-01-21T06:30:41.963Z,69.71
2019-01-21T06:33:16.049Z,69.93
2019-01-21T06:35:49.870Z,69.20
2019-01-21T06:38:22.708Z,70.11
2019-01-21T06:40:54.558Z,70.29
2019-01-21T06:43:25.519Z,70.92
2019-01-21T06:45:59.118Z,70.29
2019-01-21T06:48:30.232Z,69.44
2019-01-21T06:51:06.623Z,69.91
2019-01-21T06:53:41.545Z,69.56
2019-01-21T06:56:16.282Z,70.16
2019-01-21T06:58:50.997Z,69.63
2019-01-21T07:01:25.076Z,70.31
2019-01-21T07:04:01.750Z,68.97
2019-01-21T07:06:36.802Z,69.34
2019-01-21T07:09:10.159Z,68.52
2019-01-21T07:11:43.355Z,68.85
2019-01-21T07:14:19.581Z,69.45
2019-01-21T07:16:50.706Z,69.15
2019-01-21T07:19:24.551Z,70.26
2019-01-21T07:22:02.466Z,70.05
2019-01-21T07:24:36.432Z,70.28
2019-01-21T07:27:11.135Z,68.84
2019-01-21T07:29:42.272Z,68.44
2019-01-21T07:32:14.857Z,68.18
2019-01-21T07:34:50.566Z,68.25
2019-01-21T07:37:25.255Z,66.46
2019-01-21T07:40:09.652Z,66.60
2019-01-21T07:42:45.442Z,65.99
2019-01-21T07:45:19.150Z,65.09
2019-01-21T07:47:50.805Z,63.39
2019-01-21T07:50:24.676Z,63.22
2019-01-21T07:52:57.305Z,63.57
2019-01-21T07:55:30.290Z,63.10
2019-01-21T07:58:05.059Z,63.30
2019-01-21T08:00:38.548Z,63.14
2019-01-21T08:03:14.177Z,62.40
2019-01-21T08:05:45.857Z,61.19
2019-01-21T08:08:18.712Z,61.63
2019-01-21T08:10:52.618Z,60.47
2019-01-21T08:13:27.381Z,59.75
2019-01-21T08:15:58.354Z,59.80
2019-01-21T08:18:33.078Z,60.51
2019-01-21T08:21:07.092Z,61.42
2019-01-21T08:23:37.374Z,61.87
2019-01-21T08:26:11.051Z,61.57
2019-01-21T08:28:44.614Z,62.55
2019-01-21T08:31:17.320Z,62.55
2019-01-21T08:33:50.864Z,63.38
2019-01-21T08:36:22.613Z,63.61
2019-01-21T08:38:53.542Z,65.23
2019-01-21T08:41:28.349Z,65.27
2019-01-21T08:44:02.152Z,65.25
2019-01-21T08:46:33.944Z,65.45
2019-01-21T08:49:07.212Z,65.08
2019-01-21T08:51:43.928Z,64.31
2019-01-21T08:54:17.114Z,63.96
2019-01-21T08:56:50.837Z,65.29
2019-01-21T08:59:23.755Z,62.99
2019-01-21T09:01:57.829Z,63.15
2019-01-21T09:04:34.765Z,63.32
2019-01-21T09:07:08.542Z,63.51
2019-01-21T09:09:42.293Z,61.70
2019-01-21T09:12:14.057Z,62.78
2019-01-21T09:14:45.665Z,63.38
2019-01-21T09:17:20.561Z,62.61
2019-01-21T09:19:54.193Z,61.07
2019-01-21T09:22:28.005Z,59.78
2019-01-21T09:25:04.276Z,60.93
2019-01-21T09:27:38.542Z,60.84
2019-01-21T09:30:23.451Z,60.77
2019-01-21T09:32:59.130Z,60.01
2019-01-21T09:35:31.693Z,61.36
2019-01-21T09:38:06.917Z,62.34
2019-01-21T09:40:41.614Z,61.09
2019-01-21T09:43:13.504Z,61.48
2019-01-21T09:45:48.259Z,60.69
2019-01-21T09:48:16.154Z,62.02
2019-01-21T09:50:46.118Z,61.70
2019-01-21T09:53:14.597Z,61.36
2019-01-21T09:55:46.861Z,60.72
2019-01-21T09:58:15.235Z,62.06
2019-01-21T10:00:43.790Z,61.23
2019-01-21T10:03:12.634Z,61.27
2019-01-21T10:05:44.901Z,60.75
2019-01-21T10:08:15.947Z,59.87
2019-01-21T10:10:47.025Z,59.84
2019-01-21T10:13:20.136Z,59.29
2019-01-21T10:15:54.779Z,61.32
2019-01-21T10:18:28.450Z,61.82
2019-01-21T10:21:01.461Z,62.39
2019-01-21T10:23:34.400Z,60.41
2019-01-21T10:26:10.241Z,59.76
2019-01-21T10:28:43.273Z,60.86
2019-01-21T10:31:15.613Z,60.30
2019-01-21T10:33:51.966Z,60.29
2019-01-21T10:36:26.681Z,60.42
2019-01-21T10:39:02.685Z,60.06
2019-01-21T10:41:35.666Z,59.15
2019-01-21T10:44:11.417Z,59.16
2019-01-21T10:46:45.257Z,59.41
2019-01-21T10:49:19.982Z,60.10
2019-01-21T10:51:55.732Z,59.92
2019-01-21T10:54:29.375Z,58.52
2019-01-21T10:57:04.161Z,58.29
2019-01-21T10:59:38.932Z,58.63
2019-01-21T11:02:12.750Z,58.28
2019-01-21T11:04:44.665Z,59.84
2019-01-21T11:07:19.655Z,59.12
2019-01-21T11:09:54.613Z,58.91
2019-01-21T11:12:28.137Z,59.78
2019-01-21T11:15:01.369Z,59.85
2019-01-21T11:17:37.015Z,58.43
2019-01-21T11:20:13.687Z,57.88
2019-01-21T11:22:47.083Z,57.58
2019-01-21T11:25:19.935Z,58.37
2019-01-21T11:27:53.739Z,58.53
2019-01-21T11:30:29.480Z,56.96
2019-01-21T11:33:04.195Z,57.12
2019-01-21T11:35:39.026Z,57.29
2019-01-21T11:38:11.831Z,56.62
2019-01-21T11:40:44.777Z,56.34
2019-01-21T11:43:17.439Z,56.68
2019-01-21T11:45:52.762Z,57.02
2019-01-21T11:48:28.557Z,56.89
2019-01-21T11:51:03.276Z,57.00
2019-01-21T11:53:36.179Z,56.91
2019-01-21T11:56:07.436Z,56.99
2019-01-21T11:58:41.318Z,58.80
2019-01-21T12:01:14.235Z,58.33
2019-01-21T12:03:47.045Z,56.84
2019-01-21T12:06:16.924Z,56.47
2019-01-21T12:08:50.675Z,56.37
2019-01-21T12:11:22.467Z,56.14
2019-01-21T12:13:58.342Z,56.21
2019-01-21T12:16:32.290Z,56.34
2019-01-21T12:19:05.137Z,56.05
2019-01-21T12:21:38.565Z,56.74
2019-01-21T12:24:10.853Z,56.16
2019-01-21T12:26:44.696Z,56.63
2019-01-21T12:29:18.667Z,56.73
2019-01-21T12:31:50.428Z,57.25
2019-01-21T12:34:25.175Z,56.10
2019-01-21T12:36:55.901Z,55.99
2019-01-21T12:39:29.868Z,55.66
2019-01-21T12:42:05.939Z,56.13
2019-01-21T12:44:39.600Z,55.42
2019-01-21T12:47:13.334Z,54.87
2019-01-21T12:49:48.079Z,55.37
2019-01-21T12:52:18.681Z,57.13
2019-01-21T12:54:53.441Z,55.48
2019-01-21T12:57:25.980Z,55.63
2019-01-21T13:00:00.785Z,56.99
2019-01-21T13:02:32.406Z,55.92
2019-01-21T13:05:05.230Z,53.97
2019-01-21T13:07:38.188Z,53.56
2019-01-21T13:10:09.608Z,54.08
2019-01-21T13:12:42.397Z,54.00
2019-01-21T13:15:13.577Z,54.11
2019-01-21T13:17:47.262Z,54.52
2019-01-21T13:20:20.145Z,54.38
2019-01-21T13:22:53.833Z,54.36
2019-01-21T13:25:26.798Z,54.72
2019-01-21T13:28:02.403Z,54.73
2019-01-21T13:30:37.078Z,54.58
2019-01-21T13:33:11.759Z,54.60
2019-01-21T13:35:46.394Z,54.42
2019-01-21T13:38:22.150Z,54.15
2019-01-21T13:40:55.876Z,54.27
2019-01-21T13:43:30.681Z,54.18
2019-01-21T13:46:09.242Z,54.20
2019-01-21T13:48:43.137Z,54.70
2019-01-21T13:51:21.851Z,55.28
2019-01-21T13:53:57.534Z,54.04
2019-01-21T13:56:31.258Z,54.26
2019-01-21T13:59:04.959Z,53.98
2019-01-21T14:01:35.781Z,54.45
2019-01-21T14:04:10.696Z,54.08
2019-01-21T14:06:43.753Z,54.32
2019-01-21T14:09:17.585Z,54.19
2019-01-21T14:11:50.453Z,54.73
2019-01-21T14:14:23.963Z,54.29
2019-01-21T14:16:58.589Z,54.54
2019-01-21T14:19:31.642Z,54.25
2019-01-21T14:22:06.492Z,54.61
2019-01-21T14:24:42.189Z,54.81
2019-01-21T14:27:16.007Z,55.05
2019-01-21T14:29:47.737Z,55.21
2019-01-21T14:32:21.665Z,54.49
2019-01-21T14:34:57.358Z,54.13
2019-01-21T14:37:31.349Z,54.34
2019-01-21T14:40:05.004Z,54.59
2019-01-21T14:42:39.733Z,54.74
2019-01-21T14:45:13.288Z,54.85
2019-01-21T14:47:47.968Z,55.03
2019-01-21T14:50:21.757Z,54.71
2019-01-21T14:52:54.754Z,54.96
2019-01-21T14:55:27.595Z,53.95
2019-01-21T14:58:00.639Z,53.99
2019-01-21T15:00:34.527Z,54.09
2019-01-21T15:03:07.831Z,54.44
2019-01-21T15:05:41.564Z,54.75
2019-01-21T15:08:13.928Z,54.02
2019-01-21T15:10:45.845Z,54.74
2019-01-21T15:13:18.504Z,54.62
2019-01-21T15:15:51.626Z,54.46
2019-01-21T15:18:25.407Z,53.99
2019-01-21T15:20:58.415Z,54.80
2019-01-21T15:23:34.233Z,54.24
2019-01-21T15:26:08.956Z,54.14
2019-01-21T15:28:42.786Z,54.31
2019-01-21T15:31:23.847Z,55.24
2019-01-21T15:33:58.812Z,55.74
2019-01-21T15:36:34.750Z,55.62
2019-01-21T15:39:08.259Z,55.92
2019-01-21T15:41:42.425Z,56.56
2019-01-21T15:44:16.579Z,56.82
2019-01-21T15:46:48.908Z,57.36
2019-01-21T15:49:21.953Z,57.56
2019-01-21T15:51:55.794Z,57.85
2019-01-21T15:54:28.812Z,58.31
2019-01-21T15:57:01.924Z,58.19
2019-01-21T15:59:34.991Z,57.80
2019-01-21T16:02:08.821Z,58.47
2019-01-21T16:04:39.914Z,58.42
2019-01-21T16:07:13.735Z,58.92
2019-01-21T16:09:47.597Z,59.22
2019-01-21T16:12:23.509Z,58.63
2019-01-21T16:14:54.611Z,59.23
2019-01-21T16:17:29.375Z,59.10
2019-01-21T16:20:00.848Z,59.27
2019-01-21T16:22:34.757Z,59.78
2019-01-21T16:25:05.386Z,59.77
2019-01-21T16:27:37.514Z,60.04
2019-01-21T16:30:12.317Z,60.48
2019-01-21T16:32:41.730Z,60.14
2019-01-21T16:35:15.476Z,60.44
2019-01-21T16:37:48.392Z,60.86
2019-01-21T16:40:22.318Z,60.83
2019-01-21T16:42:50.675Z,61.07
2019-01-21T16:45:19.248Z,60.81
2019-01-21T16:47:47.646Z,60.74
2019-01-21T16:50:16.025Z,60.97
2019-01-21T16:52:44.436Z,61.32
2019-01-21T16:55:16.175Z,61.30
2019-01-21T16:57:44.536Z,61.08
2019-01-21T17:00:14.563Z,61.67
2019-01-21T17:02:42.962Z,61.55
2019-01-21T17:05:13.154Z,61.23
2019-01-21T17:07:41.520Z,61.19
2019-01-21T17:10:11.539Z,61.47
2019-01-21T17:12:40.040Z,61.09
2019-01-21T17:15:10.828Z,61.61
2019-01-21T17:17:39.406Z,61.69
2019-01-21T17:20:14.496Z,61.99
2019-01-21T17:22:42.962Z,62.14
2019-01-21T17:25:11.986Z,61.75
2019-01-21T17:27:40.463Z,61.53
2019-01-21T17:30:12.796Z,61.73
2019-01-21T17:32:41.183Z,62.03
2019-01-21T17:35:11.663Z,61.71
2019-01-21T17:37:40.050Z,62.05
2019-01-21T17:40:13.191Z,61.92
2019-01-21T17:42:41.619Z,62.86
2019-01-21T17:45:13.462Z,62.35
2019-01-21T17:47:42.035Z,62.91
2019-01-21T17:50:11.906Z,62.83
2019-01-21T17:52:40.237Z,63.21
2019-01-21T17:55:09.743Z,63.01
2019-01-21T17:57:38.127Z,63.44
2019-01-21T18:00:10.924Z,63.22
2019-01-21T18:02:39.267Z,63.12
2019-01-21T18:05:07.824Z,63.17
2019-01-21T18:07:36.170Z,63.64
2019-01-21T18:10:08.503Z,64.04
2019-01-21T18:12:36.889Z,63.79
2019-01-21T18:15:07.226Z,63.67
2019-01-21T18:17:35.575Z,63.44
2019-01-21T18:20:08.729Z,63.94
2019-01-21T18:22:37.049Z,64.26
2019-01-21T18:25:08.241Z,64.37
2019-01-21T18:27:36.613Z,64.20
2019-01-21T18:30:09.013Z,64.40
2019-01-21T18:32:37.358Z,64.70
2019-01-21T18:35:06.959Z,64.32
2019-01-21T18:37:35.306Z,64.51
2019-01-21T18:40:06.860Z,64.08
2019-01-21T18:42:35.277Z,64.08
2019-01-21T18:45:06.281Z,64.27
2019-01-21T18:47:34.606Z,64.68
2019-01-21T18:50:04.038Z,64.14
2019-01-21T18:52:32.386Z,63.98
2019-01-21T18:55:00.755Z,64.27
2019-01-21T18:57:29.209Z,64.29
2019-01-21T18:59:57.575Z,64.81
2019-01-21T19:02:26.119Z,64.62
2019-01-21T19:04:54.460Z,64.91
2019-01-21T19:07:22.830Z,64.79
2019-01-21T19:09:51.187Z,64.91
2019-01-21T19:12:19.578Z,64.99
2019-01-21T19:14:47.965Z,65.32
2019-01-21T19:17:16.336Z,65.13
2019-01-21T19:19:44.677Z,64.90
2019-01-21T19:22:13.506Z,65.05
2019-01-21T19:24:42.965Z,65.28
2019-01-21T19:27:11.762Z,65.30
2019-01-21T19:29:40.184Z,64.81
2019-01-21T19:32:08.529Z,64.24
2019-01-21T19:34:36.931Z,64.31
2019-01-21T19:37:05.483Z,64.42
2019-01-21T19:39:34.054Z,65.29
2019-01-21T19:42:02.845Z,65.08
2019-01-21T19:44:31.214Z,65.27
2019-01-21T19:46:59.664Z,65.63
2019-01-21T19:49:28.054Z,65.15
2019-01-21T19:52:00.209Z,65.51
2019-01-21T19:54:26.837Z,65.97
2019-01-21T19:56:55.224Z,66.54
2019-01-21T19:59:23.565Z,66.42
2019-01-21T20:01:51.893Z,66.86
2019-01-21T20:04:20.308Z,66.63
2019-01-21T20:06:48.680Z,65.71
2019-01-21T20:09:17.078Z,66.55
2019-01-21T20:11:45.445Z,66.40
2019-01-21T20:14:13.923Z,66.01
2019-01-21T20:16:42.302Z,66.13
2019-01-21T20:19:11.080Z,66.07
2019-01-21T20:21:39.511Z,66.72
2019-01-21T20:24:07.918Z,67.03
2019-01-21T20:26:36.349Z,67.24
2019-01-21T20:29:04.753Z,67.60
2019-01-21T20:31:33.155Z,67.45
2019-01-21T20:34:01.490Z,68.11
2019-01-21T20:36:29.905Z,68.86
2019-01-21T20:38:58.305Z,68.69
2019-01-21T20:41:27.183Z,68.42
2019-01-21T20:43:55.634Z,68.82
2019-01-21T20:46:24.044Z,68.25
2019-01-21T20:48:52.441Z,68.11
2019-01-21T20:51:20.777Z,67.55
2019-01-21T20:53:49.119Z,67.11
2019-01-21T20:56:17.498Z,67.48
2019-01-21T20:58:47.430Z,67.28
2019-01-21T21:01:16.255Z,67.62
2019-01-21T21:03:44.861Z,67.72
2019-01-21T21:06:13.658Z,67.72
2019-01-21T21:08:42.073Z,67.64
2019-01-21T21:11:10.974Z,67.79
2019-01-21T21:13:39.379Z,68.29
2019-01-21T21:16:07.786Z,68.11
2019-01-21T21:18:36.162Z,67.91
2019-01-21T21:21:04.581Z,68.55
2019-01-21T21:23:32.942Z,68.31
2019-01-21T21:26:01.314Z,67.97
2019-01-21T21:28:31.133Z,68.14
2019-01-21T21:30:59.667Z,68.10
2019-01-21T21:33:28.188Z,68.24
2019-01-21T21:35:56.699Z,67.47
2019-01-21T21:38:25.136Z,67.33
2019-01-21T21:40:53.710Z,68.11
2019-01-21T21:43:22.332Z,67.67
2019-01-21T21:45:50.936Z,68.15
2019-01-21T21:48:19.376Z,68.60
2019-01-21T21:50:47.907Z,69.12
2019-01-21T21:53:16.429Z,68.98
2019-01-21T21:55:44.938Z,69.37
2019-01-21T21:58:13.496Z,68.80
2019-01-21T22:00:42.019Z,68.67
2019-01-21T22:03:10.898Z,69.45
2019-01-21T22:05:40.257Z,70.70
2019-01-21T22:08:09.798Z,70.99
2019-01-21T22:10:38.210Z,70.59
2019-01-21T22:13:06.563Z,70.74
2019-01-21T22:15:35.058Z,70.00
2019-01-21T22:18:04.778Z,71.16
2019-01-21T22:20:33.347Z,70.20
2019-01-21T22:23:02.119Z,70.46
2019-01-21T22:25:30.481Z,70.62
2019-01-21T22:27:58.841Z,70.85
2019-01-21T22:30:27.413Z,70.36
2019-01-21T22:32:55.836Z,69.77
2019-01-21T22:35:24.711Z,69.95
2019-01-21T22:37:53.058Z,70.62
2019-01-21T22:40:21.943Z,70.81
2019-01-21T22:42:50.496Z,70.10
2019-01-21T22:45:19.852Z,70.94
2019-01-21T22:47:48.418Z,70.15
2019-01-21T22:50:17.928Z,71.39
2019-01-21T22:52:46.582Z,71.00
2019-01-21T22:55:15.540Z,71.15
2019-01-21T22:57:44.144Z,71.52
2019-01-21T23:00:16.000Z,70.99
2019-01-21T23:02:44.955Z,70.21
2019-01-21T23:05:13.875Z,69.97
2019-01-21T23:07:42.301Z,70.35
2019-01-21T23:10:11.822Z,70.75
2019-01-21T23:12:40.299Z,71.10
2019-01-21T23:15:09.472Z,71.87
2019-01-21T23:17:37.813Z,70.88
2019-01-21T23:20:09.458Z,71.36
2019-01-21T23:22:37.821Z,71.72
2019-01-21T23:25:06.888Z,71.30
2019-01-21T23:27:35.241Z,71.58
2019-01-21T23:30:08.257Z,71.43
2019-01-21T23:32:36.946Z,70.33
2019-01-21T23:35:06.152Z,70.52
2019-01-21T23:37:34.494Z,70.36
2019-01-21T23:40:04.274Z,70.29
2019-01-21T23:42:32.661Z,70.54
2019-01-21T23:45:01.005Z,70.85
2019-01-21T23:47:29.413Z,70.86
2019-01-21T23:49:57.782Z,71.56
2019-01-21T23:52:26.118Z,70.72
2019-01-21T23:54:54.878Z,70.56
2019-01-21T23:57:23.217Z,70.59
2019-01-21T23:59:51.690Z,70.65
